Time;durP1;ratioP1;P1;durP2;ratioP2;P2;SDS_P1;SDS_P2;PMS_P1;PMS_P2;Temp;Humidity;BMP_temperature;BMP_pressure;BME280_temperature;BME280_humidity;BME280_pressure;Samples;Min_cycle;Max_cycle;Signal;HPM_P1;HPM_P2
2022/05/08 00:01:55;;;;;;;52.10;24.95;;;13.30;99.90;;;;;;4148159;28;20168;-93
2022/05/08 00:03:57;;;;;;;52.55;25.27;;;13.70;99.90;;;;;;4148030;28;20196;-92
2022/05/08 00:06:06;;;;;;;55.67;24.75;;;13.70;99.90;;;;;;4147960;28;20255;-93
2022/05/08 00:08:09;;;;;;;52.38;24.63;;;13.60;99.90;;;;;;4147920;28;20181;-93
2022/05/08 00:10:10;;;;;;;51.70;24.88;;;13.50;99.90;;;;;;4147882;28;20216;-93
2022/05/08 00:12:12;;;;;;;59.35;26.98;;;13.50;99.90;;;;;;4149147;28;20549;-92
2022/05/08 00:14:13;;;;;;;54.60;25.00;;;13.60;99.90;;;;;;4149113;28;20177;-93
2022/05/08 00:16:14;;;;;;;53.65;24.10;;;13.60;99.90;;;;;;4170352;28;20180;-93
2022/05/08 00:18:17;;;;;;;59.03;26.00;;;13.50;99.90;;;;;;4153943;28;20176;-93
2022/05/08 00:20:18;;;;;;;59.03;25.27;;;13.30;99.90;;;;;;4155986;28;20177;-93
2022/05/08 00:22:19;;;;;;;56.75;25.20;;;13.50;99.90;;;;;;4155272;28;20172;-92
2022/05/08 00:24:20;;;;;;;65.38;26.80;;;13.50;99.90;;;;;;4170639;28;20218;-93
2022/05/08 00:26:20;;;;;;;54.80;25.33;;;13.50;99.90;;;;;;4154823;28;20173;-90
2022/05/08 00:28:21;;;;;;;60.50;25.27;;;13.50;99.90;;;;;;4150905;28;20175;-92
2022/05/08 00:30:22;;;;;;;51.53;24.85;;;13.50;99.90;;;;;;4154868;28;20236;-93
2022/05/08 00:32:23;;;;;;;52.97;24.55;;;13.40;99.90;;;;;;4169403;28;20255;-93
2022/05/08 00:34:27;;;;;;;49.67;24.83;;;13.30;99.90;;;;;;4151300;28;20177;-93
2022/05/08 00:36:28;;;;;;;55.60;25.38;;;13.30;99.90;;;;;;4151060;28;20180;-92
2022/05/08 00:38:29;;;;;;;47.20;24.15;;;13.30;99.90;;;;;;4150664;28;20181;-93
2022/05/08 00:40:35;;;;;;;52.92;24.70;;;13.20;99.90;;;;;;4167115;28;20196;-94
2022/05/08 00:42:36;;;;;;;50.70;24.73;;;12.90;99.90;;;;;;4150748;28;20184;-93
2022/05/08 00:44:37;;;;;;;47.17;23.92;;;12.80;99.90;;;;;;4150580;28;20169;-95
2022/05/08 00:46:38;;;;;;;52.88;23.38;;;12.60;99.90;;;;;;4150919;28;20193;-92
2022/05/08 00:48:40;;;;;;;53.92;24.88;;;12.70;99.90;;;;;;4167305;28;20196;-93
2022/05/08 00:50:41;;;;;;;48.25;22.65;;;12.70;99.90;;;;;;4150681;28;20628;-93
2022/05/08 00:52:42;;;;;;;43.80;23.00;;;12.80;99.90;;;;;;4167128;28;20172;-94
2022/05/08 00:54:43;;;;;;;45.85;22.48;;;12.80;99.90;;;;;;4150471;28;20533;-92
2022/05/08 00:56:44;;;;;;;42.33;22.17;;;12.80;99.90;;;;;;4150621;28;20541;-94
2022/05/08 00:58:48;;;;;;;52.17;24.65;;;12.90;99.90;;;;;;4166890;28;20250;-93
2022/05/08 01:00:49;;;;;;;45.63;21.33;;;12.80;99.90;;;;;;4150859;28;20255;-95
2022/05/08 01:02:57;;;;;;;43.08;21.13;;;13.00;99.90;;;;;;4150461;28;20211;-93
2022/05/08 01:05:00;;;;;;;43.50;22.08;;;13.00;99.90;;;;;;4150754;28;20185;-92
2022/05/08 01:07:01;;;;;;;41.58;20.83;;;13.20;99.90;;;;;;4150300;28;20223;-93
2022/05/08 01:09:02;;;;;;;40.78;19.92;;;13.20;99.90;;;;;;4150450;28;20226;-92
2022/05/08 01:11:08;;;;;;;42.58;19.98;;;13.30;99.90;;;;;;4166768;28;20216;-94
2022/05/08 01:13:09;;;;;;;39.15;19.75;;;13.30;99.90;;;;;;4150613;28;20184;-93
2022/05/08 01:15:14;;;;;;;42.50;20.45;;;13.40;99.90;;;;;;4150476;28;20573;-93
2022/05/08 01:17:15;;;;;;;41.75;19.08;;;13.30;99.90;;;;;;4150398;28;20733;-92
2022/05/08 01:19:16;;;;;;;40.60;18.98;;;13.10;99.90;;;;;;4150352;28;20196;-92
2022/05/08 01:21:39;;;;;;;38.22;17.70;;;13.00;99.90;;;;;;4150281;28;20173;-91
2022/05/08 01:23:40;;;;;;;36.03;18.05;;;13.00;99.90;;;;;;4150271;28;20257;-93
2022/05/08 01:25:55;;;;;;;43.50;18.97;;;13.00;99.90;;;;;;4150813;28;20164;-91
2022/05/08 01:27:55;;;;;;;47.08;19.00;;;13.10;99.90;;;;;;4149684;28;20278;-93
2022/05/08 01:30:01;;;;;;;33.97;18.00;;;13.10;99.90;;;;;;4166653;28;20212;-93
2022/05/08 01:32:02;;;;;;;34.45;17.15;;;13.00;99.90;;;;;;4149896;28;20169;-93
2022/05/08 01:34:03;;;;;;;38.42;16.30;;;13.00;99.90;;;;;;4150248;28;20204;-93
2022/05/08 01:36:04;;;;;;;34.28;16.75;;;12.90;99.90;;;;;;4149763;28;20185;-93
2022/05/08 01:38:06;;;;;;;30.63;16.75;;;12.80;99.90;;;;;;4149992;28;20177;-94
2022/05/08 01:40:10;;;;;;;28.67;15.13;;;12.90;99.90;;;;;;4149998;28;20585;-91
2022/05/08 01:42:11;;;;;;;33.33;15.18;;;12.90;99.90;;;;;;4149723;28;20188;-93
2022/05/08 01:44:12;;;;;;;32.42;14.77;;;12.90;99.90;;;;;;4149976;28;20661;-92
2022/05/08 01:46:13;;;;;;;31.83;15.68;;;12.80;99.90;;;;;;4149487;28;20181;-91
2022/05/08 01:48:23;;;;;;;35.30;15.80;;;12.90;99.90;;;;;;4149666;28;20243;-91
2022/05/08 01:50:26;;;;;;;28.75;15.25;;;12.90;99.90;;;;;;4149808;28;20568;-91
2022/05/08 01:52:27;;;;;;;30.42;14.60;;;12.90;99.90;;;;;;4149140;28;20211;-92
2022/05/08 01:54:29;;;;;;;24.85;13.30;;;13.00;99.90;;;;;;4149691;28;20173;-91
2022/05/08 01:56:30;;;;;;;31.10;13.93;;;13.00;99.90;;;;;;4149643;28;20173;-91
2022/05/08 01:58:36;;;;;;;25.83;13.70;;;12.90;99.90;;;;;;4149735;28;20192;-92
2022/05/08 02:00:42;;;;;;;29.58;13.57;;;12.90;99.90;;;;;;4149902;28;20172;-92
2022/05/08 02:02:54;;;;;;;28.48;13.95;;;12.80;99.90;;;;;;4149559;28;20277;-91
2022/05/08 02:04:55;;;;;;;27.23;13.43;;;12.70;99.90;;;;;;4149697;28;20215;-91
2022/05/08 02:06:56;;;;;;;25.20;12.33;;;12.80;99.90;;;;;;4166035;28;20184;-94
2022/05/08 02:08:57;;;;;;;26.33;13.10;;;12.60;99.90;;;;;;4149512;28;20197;-93
2022/05/08 02:11:00;;;;;;;25.63;11.53;;;12.70;99.90;;;;;;4148342;28;20230;-93
2022/05/08 02:13:02;;;;;;;28.03;11.37;;;12.70;99.90;;;;;;4149458;28;20211;-95
2022/05/08 02:15:06;;;;;;;25.27;11.90;;;12.60;99.90;;;;;;4149478;28;20180;-93
2022/05/08 02:17:06;;;;;;;24.67;10.73;;;12.60;99.90;;;;;;4149431;28;20169;-93
2022/05/08 02:19:07;;;;;;;20.83;10.83;;;12.50;99.90;;;;;;4165539;28;20203;-92
2022/05/08 02:21:17;;;;;;;20.73;9.82;;;12.60;99.90;;;;;;4149420;28;20183;-92
2022/05/08 02:23:20;;;;;;;19.57;9.97;;;12.50;99.90;;;;;;4165540;28;20222;-92
2022/05/08 02:25:21;;;;;;;18.10;9.93;;;12.50;99.90;;;;;;4149257;28;20181;-93
2022/05/08 02:27:22;;;;;;;18.50;9.43;;;12.60;99.90;;;;;;4149132;28;20177;-93
2022/05/08 02:29:25;;;;;;;16.90;9.40;;;12.60;99.90;;;;;;4165911;28;20281;-93
2022/05/08 02:31:32;;;;;;;17.50;8.93;;;12.50;99.90;;;;;;4165454;28;20814;-92
2022/05/08 02:33:36;;;;;;;15.57;9.15;;;12.50;99.90;;;;;;4149063;28;20208;-95
2022/05/08 02:35:37;;;;;;;14.53;7.93;;;12.50;99.90;;;;;;4148917;28;20172;-93
2022/05/08 02:37:48;;;;;;;15.53;7.33;;;12.50;99.90;;;;;;4148909;28;20657;-93
2022/05/08 02:39:49;;;;;;;12.03;7.60;;;12.40;99.90;;;;;;4149160;28;20188;-95
2022/05/08 02:42:01;;;;;;;19.63;8.27;;;12.40;99.90;;;;;;4149402;28;20507;-94
2022/05/08 02:44:02;;;;;;;16.33;7.43;;;12.40;99.90;;;;;;4149112;28;20176;-92
2022/05/08 02:46:14;;;;;;;12.70;6.73;;;12.50;99.90;;;;;;4165367;28;20199;-94
2022/05/08 02:48:29;;;;;;;14.70;6.83;;;12.50;99.90;;;;;;4149788;28;20216;-93
2022/05/08 02:50:41;;;;;;;15.67;7.03;;;12.50;99.90;;;;;;4149491;28;20204;-93
2022/05/08 02:52:47;;;;;;;12.20;6.77;;;12.50;99.90;;;;;;4149622;28;20696;-94
2022/05/08 02:54:50;;;;;;;18.97;7.37;;;12.60;99.90;;;;;;4149530;28;20662;-94
2022/05/08 02:59:11;;;;;;;15.00;7.40;;;12.70;99.90;;;;;;4165632;28;20196;-94
2022/05/08 03:01:11;;;;;;;12.83;7.33;;;12.40;99.90;;;;;;4166039;28;20274;-92
2022/05/08 03:03:14;;;;;;;14.17;7.60;;;12.30;99.90;;;;;;4149057;28;20169;-93
2022/05/08 03:05:17;;;;;;;10.77;6.67;;;12.40;99.90;;;;;;4149314;28;20581;-94
2022/05/08 03:07:20;;;;;;;14.13;6.40;;;12.50;99.90;;;;;;4149388;28;20172;-94
2022/05/08 03:09:33;;;;;;;15.87;7.37;;;12.50;99.90;;;;;;4149292;28;20638;-92
2022/05/08 03:11:37;;;;;;;16.00;6.83;;;12.60;99.90;;;;;;4148791;28;20216;-94
2022/05/08 03:13:52;;;;;;;16.00;7.50;;;12.50;99.90;;;;;;4149465;28;20180;-92
2022/05/08 03:16:01;;;;;;;15.57;7.33;;;12.50;99.90;;;;;;4149166;28;20177;-91
2022/05/08 03:18:05;;;;;;;15.23;7.30;;;12.50;99.90;;;;;;4164958;28;20184;-93
2022/05/08 03:20:10;;;;;;;16.13;7.17;;;12.50;99.90;;;;;;4148316;28;20208;-94
2022/05/08 03:22:40;;;;;;;14.93;6.43;;;12.40;99.90;;;;;;4164956;28;20696;-92
2022/05/08 03:24:42;;;;;;;13.57;6.70;;;12.30;99.90;;;;;;4164716;28;20223;-90
2022/05/08 03:26:42;;;;;;;16.90;7.07;;;12.30;99.90;;;;;;4148328;28;20176;-92
2022/05/08 03:28:47;;;;;;;13.70;6.63;;;12.40;99.90;;;;;;4164480;28;20283;-91
2022/05/08 03:30:50;;;;;;;14.63;7.07;;;12.20;99.90;;;;;;4148357;28;20542;-93
2022/05/08 03:33:06;;;;;;;11.27;6.30;;;12.20;99.90;;;;;;4148101;28;20177;-92
2022/05/08 03:35:07;;;;;;;15.73;7.07;;;12.10;99.90;;;;;;4148417;28;20230;-93
2022/05/08 03:37:11;;;;;;;12.77;7.10;;;12.00;99.90;;;;;;4148443;28;20641;-94
2022/05/08 03:39:12;;;;;;;15.13;7.47;;;12.00;99.90;;;;;;4148500;28;20193;-94
2022/05/08 03:41:31;;;;;;;13.70;6.80;;;12.10;99.90;;;;;;4148651;28;20735;-92
2022/05/08 03:43:32;;;;;;;12.10;6.73;;;12.20;99.90;;;;;;4148289;28;20185;-96
2022/05/08 03:45:36;;;;;;;15.10;7.03;;;12.20;99.90;;;;;;4164550;28;20672;-92
2022/05/08 03:47:36;;;;;;;12.43;6.37;;;12.30;99.90;;;;;;4164674;28;20179;-93
2022/05/08 03:49:45;;;;;;;15.70;7.70;;;12.30;99.90;;;;;;4149760;28;20246;-93
2022/05/08 03:51:48;;;;;;;16.23;6.70;;;12.40;99.90;;;;;;4167843;28;20172;-92
2022/05/08 03:53:52;;;;;;;13.00;6.97;;;12.40;99.90;;;;;;4152232;28;20250;-92
2022/05/08 03:55:56;;;;;;;15.43;7.33;;;12.40;99.90;;;;;;4151976;28;20672;-91
2022/05/08 03:58:04;;;;;;;17.20;8.30;;;12.50;99.90;;;;;;4152456;28;20176;-92
2022/05/08 04:00:07;;;;;;;16.17;7.57;;;12.50;99.90;;;;;;4168344;28;20195;-92
2022/05/08 04:02:16;;;;;;;14.17;7.00;;;12.50;99.90;;;;;;4167987;28;20171;-93
2022/05/08 04:04:17;;;;;;;16.17;7.43;;;12.40;99.90;;;;;;4168124;28;20651;-91
2022/05/08 04:06:17;;;;;;;19.40;7.87;;;12.40;99.90;;;;;;4151345;28;20184;-93
2022/05/08 04:08:21;;;;;;;16.87;8.00;;;12.50;99.90;;;;;;4151445;28;20173;-92
2022/05/08 04:10:22;;;;;;;17.33;7.47;;;12.40;99.90;;;;;;4167861;28;20250;-94
2022/05/08 04:12:23;;;;;;;18.60;7.40;;;12.40;99.90;;;;;;4167536;28;20176;-94
2022/05/08 04:14:26;;;;;;;13.53;7.17;;;12.40;99.90;;;;;;4167803;28;20172;-92
2022/05/08 04:16:30;;;;;;;14.07;7.27;;;12.40;99.90;;;;;;4151331;28;20172;-92
2022/05/08 04:18:33;;;;;;;15.77;7.43;;;12.50;99.90;;;;;;4167257;28;20172;-92
2022/05/08 04:20:35;;;;;;;13.67;7.23;;;12.50;99.90;;;;;;4151150;28;20652;-92
2022/05/08 04:25:21;;;;;;;14.27;7.80;;;12.40;99.90;;;;;;4167730;28;20652;-92
2022/05/08 04:27:30;;;;;;;21.20;8.10;;;12.40;99.90;;;;;;4151326;28;20227;-92
2022/05/08 04:29:39;;;;;;;16.83;7.67;;;12.50;99.90;;;;;;4167142;28;20204;-95
2022/05/08 04:31:39;;;;;;;18.00;7.93;;;12.60;99.90;;;;;;4150760;28;20205;-93
2022/05/08 04:33:40;;;;;;;14.60;7.70;;;12.60;99.90;;;;;;4167026;28;20203;-94
2022/05/08 04:35:44;;;;;;;13.43;7.27;;;12.40;99.90;;;;;;4151393;28;20176;-92
2022/05/08 04:37:45;;;;;;;12.47;7.23;;;12.40;99.90;;;;;;4151350;28;20634;-93
2022/05/08 04:39:46;;;;;;;12.70;6.13;;;12.30;99.90;;;;;;4167459;28;20200;-95
2022/05/08 04:41:47;;;;;;;13.50;7.57;;;12.30;99.90;;;;;;4167252;28;20175;-93
2022/05/08 04:43:48;;;;;;;13.73;7.17;;;12.30;99.90;;;;;;4150998;28;20173;-92
2022/05/08 04:45:53;;;;;;;15.90;8.07;;;12.30;99.90;;;;;;4167482;28;20561;-93
2022/05/08 04:47:54;;;;;;;13.37;7.67;;;12.20;99.90;;;;;;4150728;28;20680;-94
2022/05/08 04:49:55;;;;;;;16.80;7.97;;;12.20;99.90;;;;;;4150638;28;20260;-92
2022/05/08 04:51:56;;;;;;;14.90;7.93;;;12.30;99.90;;;;;;4150612;28;20189;-95
2022/05/08 04:53:56;;;;;;;15.50;8.00;;;12.30;99.90;;;;;;4150907;28;20264;-91
2022/05/08 04:56:01;;;;;;;14.60;8.03;;;12.30;99.90;;;;;;4150558;28;20185;-94
2022/05/08 04:58:02;;;;;;;13.70;8.03;;;12.20;99.90;;;;;;4166793;28;20251;-92
2022/05/08 05:00:04;;;;;;;11.33;7.90;;;12.20;99.90;;;;;;4166856;28;20192;-93
2022/05/08 05:02:21;;;;;;;12.83;7.40;;;12.20;99.90;;;;;;4165454;28;20164;-94
2022/05/08 05:04:24;;;;;;;18.47;7.90;;;12.30;99.90;;;;;;4167296;28;20199;-93
2022/05/08 05:06:25;;;;;;;17.20;8.10;;;12.30;99.90;;;;;;4150719;28;20192;-92
2022/05/08 05:08:28;;;;;;;18.57;7.83;;;12.40;99.90;;;;;;4150451;28;20196;-93
2022/05/08 05:10:29;;;;;;;16.47;8.27;;;12.40;99.90;;;;;;4166528;28;20243;-91
2022/05/08 05:12:29;;;;;;;12.13;7.20;;;12.40;99.90;;;;;;4150287;28;20177;-92
2022/05/08 05:14:31;;;;;;;15.37;8.20;;;12.40;99.90;;;;;;4166408;28;20660;-92
2022/05/08 05:16:37;;;;;;;18.40;8.90;;;12.50;99.90;;;;;;4149243;28;20212;-93
2022/05/08 05:18:38;;;;;;;15.93;7.70;;;12.50;99.90;;;;;;4166561;28;20187;-94
2022/05/08 05:20:41;;;;;;;15.07;8.47;;;12.60;99.90;;;;;;4166598;28;20203;-93
2022/05/08 05:22:52;;;;;;;15.67;7.97;;;12.60;99.90;;;;;;4166765;28;20170;-92
2022/05/08 05:25:04;;;;;;;12.77;7.57;;;12.50;99.90;;;;;;4166692;28;20176;-92
2022/05/08 05:27:04;;;;;;;14.17;7.60;;;12.50;99.90;;;;;;4150066;28;20174;-92
2022/05/08 05:29:05;;;;;;;15.50;7.43;;;12.50;99.90;;;;;;4166518;28;20262;-92
2022/05/08 05:31:09;;;;;;;16.70;8.03;;;12.50;99.90;;;;;;4150287;28;20311;-94
2022/05/08 05:33:15;;;;;;;14.20;7.90;;;12.60;99.90;;;;;;4166151;28;20168;-92
2022/05/08 05:35:16;;;;;;;15.43;8.47;;;12.60;99.90;;;;;;4150012;28;20176;-93
2022/05/08 05:37:17;;;;;;;16.10;8.07;;;12.60;99.90;;;;;;4150244;28;20173;-93
2022/05/08 05:39:18;;;;;;;11.10;6.90;;;12.70;99.90;;;;;;4165909;28;20192;-92
2022/05/08 05:41:19;;;;;;;14.83;8.20;;;12.80;99.90;;;;;;4150055;28;20168;-93
2022/05/08 05:43:20;;;;;;;18.67;8.53;;;12.80;99.90;;;;;;4166103;28;20171;-93
2022/05/08 05:45:23;;;;;;;14.13;7.83;;;12.70;99.90;;;;;;4166210;28;20183;-92
2022/05/08 05:49:43;;;;;;;12.63;7.30;;;12.70;99.90;;;;;;4165935;28;20216;-93
2022/05/08 05:51:44;;;;;;;14.70;8.18;;;12.70;99.90;;;;;;4149891;28;20179;-94
2022/05/08 05:53:50;;;;;;;16.73;8.70;;;12.70;99.90;;;;;;4150035;28;20173;-94
2022/05/08 05:56:22;;;;;;;15.30;8.83;;;12.70;99.90;;;;;;4149383;28;20949;-93
2022/05/08 05:58:23;;;;;;;16.57;9.00;;;12.80;99.90;;;;;;4166105;28;20172;-93
2022/05/08 06:00:27;;;;;;;15.63;8.20;;;12.80;99.90;;;;;;4149610;28;20227;-92
2022/05/08 06:02:28;;;;;;;18.48;8.25;;;12.80;99.90;;;;;;4165989;28;20212;-95
2022/05/08 06:04:28;;;;;;;14.13;8.50;;;12.90;99.90;;;;;;4149573;28;20180;-92
2022/05/08 06:06:38;;;;;;;16.70;8.57;;;12.90;99.90;;;;;;4149589;28;20177;-92
2022/05/08 06:08:41;;;;;;;12.63;7.13;;;12.90;99.90;;;;;;4149435;28;20263;-96
2022/05/08 06:10:45;;;;;;;15.13;8.52;;;13.00;99.90;;;;;;4149424;28;20209;-93
2022/05/08 06:13:14;;;;;;;16.90;8.20;;;13.10;99.90;;;;;;4149373;28;20209;-93
2022/05/08 06:15:18;;;;;;;15.03;8.80;;;13.10;99.90;;;;;;4165324;28;20180;-91
2022/05/08 06:17:19;;;;;;;15.02;7.55;;;13.20;99.90;;;;;;4165760;28;20203;-95
2022/05/08 06:19:20;;;;;;;12.83;7.93;;;13.20;99.90;;;;;;4149332;28;20664;-92
2022/05/08 06:21:21;;;;;;;14.18;7.75;;;13.30;99.90;;;;;;4149496;28;20176;-94
2022/05/08 06:23:21;;;;;;;19.67;8.52;;;13.30;99.90;;;;;;4166607;28;20238;-94
2022/05/08 06:25:22;;;;;;;15.80;7.63;;;13.40;99.90;;;;;;4149837;28;20208;-93
2022/05/08 06:27:32;;;;;;;14.38;7.97;;;13.40;99.90;;;;;;4149481;28;20161;-95
2022/05/08 06:29:33;;;;;;;12.90;6.20;;;13.40;99.90;;;;;;4149276;28;20712;-92
2022/05/08 06:31:38;;;;;;;11.77;8.18;;;13.30;99.90;;;;;;4149597;28;20259;-94
2022/05/08 06:33:39;;;;;;;15.10;8.43;;;13.30;99.90;;;;;;4165320;28;20171;-93
2022/05/08 06:35:41;;;;;;;14.02;7.20;;;13.40;99.90;;;;;;4148976;28;20260;-93
2022/05/08 06:37:41;;;;;;;17.08;7.88;;;13.50;99.90;;;;;;4165724;28;20168;-93
2022/05/08 06:39:44;;;;;;;18.30;7.50;;;13.50;99.90;;;;;;4165634;28;20195;-92
2022/05/08 06:41:45;;;;;;;12.50;7.45;;;13.40;99.90;;;;;;4149067;28;20223;-92
2022/05/08 06:43:49;;;;;;;12.98;7.47;;;13.40;99.90;;;;;;4149008;28;20181;-96
2022/05/08 06:45:50;;;;;;;14.73;7.40;;;13.40;99.90;;;;;;4149355;28;20184;-95
2022/05/08 06:47:51;;;;;;;16.98;7.25;;;13.40;99.90;;;;;;4149205;28;20169;-93
2022/05/08 06:49:51;;;;;;;13.70;7.43;;;13.40;99.90;;;;;;4148725;28;20277;-93
2022/05/08 06:51:55;;;;;;;14.15;7.53;;;13.50;99.90;;;;;;4165864;28;20172;-93
2022/05/08 06:53:55;;;;;;;15.63;7.55;;;13.60;99.90;;;;;;4149035;28;20201;-94
2022/05/08 06:55:56;;;;;;;13.77;6.75;;;13.60;99.90;;;;;;4148840;28;20186;-95
2022/05/08 06:57:57;;;;;;;13.48;7.75;;;13.70;99.90;;;;;;4165474;28;20219;-95
2022/05/08 07:02:17;;;;;;;14.00;7.17;;;13.60;99.90;;;;;;4165048;28;20196;-93
2022/05/08 07:04:18;;;;;;;12.73;6.95;;;13.60;99.90;;;;;;4165147;28;20252;-91
2022/05/08 07:06:19;;;;;;;14.88;7.70;;;13.70;99.90;;;;;;4165374;28;20222;-95
2022/05/08 07:08:20;;;;;;;16.08;7.30;;;13.60;99.90;;;;;;4148771;28;20176;-93
2022/05/08 07:10:21;;;;;;;20.27;7.70;;;13.50;99.90;;;;;;4165350;28;20211;-92
2022/05/08 07:12:25;;;;;;;15.23;7.22;;;13.80;99.90;;;;;;4148859;28;20707;-94
2022/05/08 07:14:26;;;;;;;15.75;7.30;;;14.30;99.90;;;;;;4147423;28;20177;-93
2022/05/08 07:16:33;;;;;;;16.13;6.78;;;14.50;99.90;;;;;;4148957;28;20191;-96
2022/05/08 07:18:34;;;;;;;15.73;6.88;;;14.50;99.90;;;;;;4148831;28;20189;-95
2022/05/08 07:20:35;;;;;;;11.38;7.07;;;14.80;99.90;;;;;;4148684;28;20591;-93
2022/05/08 07:22:36;;;;;;;11.07;6.55;;;14.90;99.90;;;;;;4148630;28;20165;-93
2022/05/08 07:24:41;;;;;;;13.32;7.18;;;15.00;99.90;;;;;;4164815;28;20176;-93
2022/05/08 07:26:42;;;;;;;17.60;6.95;;;15.00;99.90;;;;;;4148740;28;20227;-95
2022/05/08 07:28:48;;;;;;;13.07;6.82;;;14.90;99.90;;;;;;4165474;28;20227;-92
2022/05/08 07:30:49;;;;;;;15.40;7.10;;;14.80;99.90;;;;;;4165311;28;20263;-96
2022/05/08 07:32:54;;;;;;;13.57;7.30;;;15.30;99.90;;;;;;4149734;28;20173;-93
2022/05/08 07:37:19;;;;;;;11.02;5.82;;;15.70;99.90;;;;;;4166845;28;20171;-92
2022/05/08 07:39:20;;;;;;;12.07;6.30;;;15.90;99.90;;;;;;4166068;28;20293;-94
2022/05/08 07:41:29;;;;;;;15.13;6.47;;;16.20;99.90;;;;;;4149172;28;20165;-93
2022/05/08 07:43:30;;;;;;;10.27;5.68;;;16.40;99.90;;;;;;4165125;28;20229;-93
2022/05/08 07:45:33;;;;;;;16.45;6.80;;;16.70;99.90;;;;;;4148473;28;20625;-93
2022/05/08 07:47:34;;;;;;;12.48;5.95;;;17.00;99.90;;;;;;4164573;28;20172;-93
2022/05/08 07:49:35;;;;;;;13.30;6.35;;;17.10;99.90;;;;;;4148133;28;20200;-93
2022/05/08 07:51:39;;;;;;;13.88;6.22;;;17.00;99.90;;;;;;4148698;28;20588;-93
2022/05/08 07:53:42;;;;;;;11.73;6.03;;;16.90;99.90;;;;;;4148318;28;20212;-94
2022/05/08 07:56:03;;;;;;;11.80;5.35;;;17.00;99.90;;;;;;4148163;28;20172;-94
2022/05/08 07:58:03;;;;;;;15.65;5.25;;;17.40;99.90;;;;;;4164183;28;20322;-93
2022/05/08 08:00:08;;;;;;;13.55;5.72;;;17.40;99.90;;;;;;4148091;28;20677;-94
2022/05/08 08:02:22;;;;;;;17.70;6.45;;;17.20;99.90;;;;;;4164354;28;20172;-94
2022/05/08 08:04:44;;;;;;;20.63;6.60;;;17.00;99.90;;;;;;4148380;28;20231;-94
2022/05/08 08:06:44;;;;;;;12.60;5.93;;;17.00;99.90;;;;;;4164068;28;20192;-92
2022/05/08 08:08:48;;;;;;;13.93;5.78;;;17.10;99.90;;;;;;4164560;28;20269;-93
2022/05/08 08:10:53;;;;;;;17.73;7.00;;;17.20;99.90;;;;;;4148290;28;20263;-95
2022/05/08 08:12:58;;;;;;;13.65;6.78;;;17.20;99.90;;;;;;4165139;28;20172;-94
2022/05/08 08:15:02;;;;;;;12.85;7.05;;;17.20;99.90;;;;;;4148350;28;20180;-93
2022/05/08 08:17:08;;;;;;;18.10;5.50;;;17.20;99.90;;;;;;4164358;28;20176;-93
2022/05/08 08:19:17;;;;;;;14.35;5.88;;;17.40;99.90;;;;;;4148184;28;20204;-94
2022/05/08 08:21:17;;;;;;;15.52;6.15;;;17.70;99.90;;;;;;4148567;28;20188;-92
2022/05/08 08:23:27;;;;;;;15.70;5.55;;;18.30;99.90;;;;;;4164636;28;20175;-94
2022/05/08 08:25:28;;;;;;;15.48;5.60;;;18.60;99.90;;;;;;4164869;28;20187;-93
2022/05/08 08:27:29;;;;;;;16.60;6.22;;;18.80;99.90;;;;;;4147723;28;20165;-92
2022/05/08 08:29:30;;;;;;;14.63;5.28;;;18.90;99.90;;;;;;4164339;28;20684;-93
2022/05/08 08:31:48;;;;;;;16.95;6.43;;;19.00;99.90;;;;;;4149663;28;20157;-94
2022/05/08 08:33:51;;;;;;;17.60;6.43;;;18.70;99.90;;;;;;4153964;28;20211;-92
2022/05/08 08:35:53;;;;;;;19.77;5.53;;;18.70;99.90;;;;;;4167727;28;20224;-93
2022/05/08 08:37:54;;;;;;;18.95;6.88;;;18.60;99.90;;;;;;4157834;28;20168;-94
2022/05/08 08:39:55;;;;;;;14.80;5.47;;;18.60;99.90;;;;;;4151359;28;20185;-94
2022/05/08 08:42:33;;;;;;;13.13;5.10;;;18.50;99.90;;;;;;4151045;28;20720;-93
2022/05/08 08:49:27;;;;;;;11.63;5.18;;;19.30;99.90;;;;;;4167549;28;20204;-93
2022/05/08 08:51:40;;;;;;;11.48;4.57;;;19.40;99.90;;;;;;4151091;28;20217;-94
2022/05/08 08:53:43;;;;;;;9.00;4.18;;;19.40;99.90;;;;;;4167546;28;20214;-93
2022/05/08 08:56:00;;;;;;;11.57;4.15;;;19.70;99.90;;;;;;4150720;28;20200;-93
2022/05/08 08:58:01;;;;;;;11.98;4.00;;;19.60;99.90;;;;;;4167423;28;20597;-94
2022/05/08 09:00:03;;;;;;;10.45;3.88;;;19.60;99.90;;;;;;4150942;28;20193;-93
2022/05/08 09:02:17;;;;;;;14.10;4.22;;;19.80;99.90;;;;;;4151040;28;20181;-93
2022/05/08 09:04:21;;;;;;;12.45;3.83;;;19.70;99.90;;;;;;4150893;28;20641;-93
2022/05/08 09:06:36;;;;;;;11.45;4.00;;;19.50;99.90;;;;;;4167334;28;20167;-94
2022/05/08 09:08:40;;;;;;;11.90;3.72;;;19.40;99.90;;;;;;4150850;28;20196;-93
2022/05/08 09:10:44;;;;;;;10.77;3.42;;;19.20;99.90;;;;;;4166974;28;20306;-93
2022/05/08 09:12:53;;;;;;;13.23;4.05;;;18.90;99.90;;;;;;4150922;28;20201;-92
2022/05/08 09:14:53;;;;;;;9.35;3.45;;;19.00;99.90;;;;;;4166852;28;20180;-92
2022/05/08 09:16:54;;;;;;;14.60;3.97;;;19.00;99.90;;;;;;4150323;28;20215;-96
2022/05/08 09:19:04;;;;;;;9.70;3.30;;;19.10;99.90;;;;;;4166360;28;20199;-95
2022/05/08 09:23:28;;;;;;;10.75;3.08;;;19.40;99.90;;;;;;4166891;28;20254;-92
2022/05/08 09:25:47;;;;;;;8.43;2.80;;;19.40;99.90;;;;;;4166633;28;20229;-93
2022/05/08 09:27:59;;;;;;;8.38;2.58;;;19.80;99.90;;;;;;4166621;28;20176;-92
2022/05/08 09:30:07;;;;;;;14.85;3.03;;;19.90;99.90;;;;;;4150202;28;20212;-93
2022/05/08 09:32:09;;;;;;;10.68;2.58;;;19.90;99.90;;;;;;4166837;28;20611;-93
2022/05/08 09:34:10;;;;;;;11.13;2.72;;;19.80;99.90;;;;;;4150286;28;20177;-92
2022/05/08 09:36:20;;;;;;;10.60;2.70;;;20.00;99.90;;;;;;4150267;28;20206;-92
2022/05/08 09:38:22;;;;;;;8.13;2.90;;;20.10;99.90;;;;;;4149961;28;20687;-92
2022/05/08 09:40:23;;;;;;;9.40;2.70;;;20.10;99.90;;;;;;4150136;28;20673;-93
2022/05/08 09:42:37;;;;;;;11.95;2.95;;;20.10;99.90;;;;;;4167086;28;20176;-95
2022/05/08 09:45:07;;;;;;;7.88;2.47;;;20.10;99.90;;;;;;4150622;28;20172;-93
2022/05/08 09:47:07;;;;;;;12.63;2.75;;;20.10;99.90;;;;;;4167053;28;20259;-93
2022/05/08 09:49:11;;;;;;;9.90;2.70;;;20.10;99.90;;;;;;4149660;28;20199;-93
2022/05/08 09:51:16;;;;;;;7.13;2.00;;;20.10;99.90;;;;;;4150866;28;20208;-93
2022/05/08 09:53:18;;;;;;;12.52;2.85;;;20.10;99.90;;;;;;4167788;28;20183;-93
2022/05/08 09:55:19;;;;;;;14.27;2.40;;;20.20;99.90;;;;;;4151950;28;20673;-93
2022/05/08 09:57:22;;;;;;;7.75;2.03;;;20.20;99.90;;;;;;4166586;28;20178;-93
2022/05/08 09:59:23;;;;;;;8.32;2.10;;;20.10;99.90;;;;;;4151186;28;20185;-94
2022/05/08 10:01:24;;;;;;;10.90;2.50;;;19.90;99.90;;;;;;4166233;28;20184;-92
2022/05/08 10:03:26;;;;;;;13.93;2.50;;;19.80;99.90;;;;;;4149640;28;20173;-92
2022/05/08 10:05:27;;;;;;;6.93;1.77;;;19.60;99.90;;;;;;4149636;28;20173;-92
2022/05/08 10:07:27;;;;;;;8.23;2.22;;;19.80;99.90;;;;;;4149816;28;20188;-94
2022/05/08 10:14:24;;;;;;;11.40;2.10;;;19.70;99.90;;;;;;4165967;28;20176;-92
2022/05/08 10:16:50;;;;;;;8.75;2.00;;;19.50;99.90;;;;;;4149402;28;20172;-92
2022/05/08 10:18:50;;;;;;;12.43;2.42;;;19.20;99.90;;;;;;4166882;28;20204;-93
2022/05/08 10:21:06;;;;;;;13.45;2.85;;;19.20;99.90;;;;;;4149772;28;20219;-93
2022/05/08 10:23:07;;;;;;;9.73;2.80;;;18.90;99.90;;;;;;4165902;28;20183;-91
2022/05/08 10:25:15;;;;;;;10.32;2.28;;;18.50;99.90;;;;;;4149561;28;20618;-90
2022/05/08 10:27:17;;;;;;;13.95;3.13;;;18.40;99.90;;;;;;4166179;28;20179;-92
2022/05/08 10:29:18;;;;;;;14.27;2.30;;;18.40;99.90;;;;;;4149256;28;20673;-93
2022/05/08 10:31:43;;;;;;;8.60;2.65;;;18.30;99.90;;;;;;4165522;28;20214;-93
2022/05/08 10:34:06;;;;;;;6.07;1.80;;;18.40;99.90;;;;;;4149247;28;20191;-91
2022/05/08 10:36:07;;;;;;;10.05;2.30;;;18.40;99.90;;;;;;4165904;28;20183;-93
2022/05/08 10:38:08;;;;;;;15.40;3.00;;;18.20;99.90;;;;;;4148662;28;20180;-93
2022/05/08 10:40:24;;;;;;;10.25;1.80;;;18.20;99.90;;;;;;4165921;28;20199;-93
2022/05/08 10:42:33;;;;;;;5.50;1.65;;;18.50;99.90;;;;;;4149417;28;20200;-92
2022/05/08 10:44:40;;;;;;;6.40;1.67;;;18.40;99.90;;;;;;4165854;28;20182;-94
2022/05/08 10:46:44;;;;;;;15.57;2.10;;;18.20;99.90;;;;;;4150439;28;20175;-94
2022/05/08 10:48:45;;;;;;;6.43;1.73;;;18.60;99.90;;;;;;4149375;28;20246;-94
2022/05/08 10:50:48;;;;;;;7.40;1.67;;;18.50;99.90;;;;;;4149215;28;20295;-94
2022/05/08 10:52:50;;;;;;;9.48;1.85;;;18.70;99.90;;;;;;4165866;28;20183;-94
2022/05/08 10:55:00;;;;;;;6.70;1.60;;;18.80;99.90;;;;;;4150049;28;20560;-92
2022/05/08 10:57:00;;;;;;;6.13;1.90;;;18.90;99.90;;;;;;4165365;28;20180;-93
2022/05/08 10:59:03;;;;;;;4.15;1.35;;;18.90;99.90;;;;;;4149624;28;20831;-92
2022/05/08 11:01:09;;;;;;;5.03;1.45;;;19.10;99.90;;;;;;4156038;28;20177;-93
2022/05/08 11:03:10;;;;;;;6.05;1.55;;;19.10;99.90;;;;;;4153433;28;20652;-92